sensor_id;sensor_type;location;lat;lon;timestamp;pressure;altitude;pressure_sealevel;temperature;humidity
21395;BME280;10858;42.714;23.180;2022-09-30T00:02:08;94096.69;;;16.35;88.86
21395;BME280;10858;42.714;23.180;2022-09-30T00:04:37;94080.56;;;16.51;87.70
21395;BME280;10858;42.714;23.180;2022-09-30T00:07:03;94073.72;;;16.41;87.32
21395;BME280;10858;42.714;23.180;2022-09-30T00:09:30;94079.03;;;16.18;87.55
21395;BME280;10858;42.714;23.180;2022-09-30T00:11:56;94072.38;;;16.14;86.68
21395;BME280;10858;42.714;23.180;2022-09-30T00:14:22;94075.22;;;15.82;87.34
21395;BME280;10858;42.714;23.180;2022-09-30T00:16:49;94074.41;;;15.73;88.28
21395;BME280;10858;42.714;23.180;2022-09-30T00:19:15;94080.34;;;15.61;87.47
21395;BME280;10858;42.714;23.180;2022-09-30T00:21:43;94080.69;;;15.50;88.28
21395;BME280;10858;42.714;23.180;2022-09-30T00:24:09;94090.50;;;15.57;87.32
21395;BME280;10858;42.714;23.180;2022-09-30T00:26:36;94086.72;;;15.44;88.06
21395;BME280;10858;42.714;23.180;2022-09-30T00:29:02;94082.13;;;15.68;86.58
21395;BME280;10858;42.714;23.180;2022-09-30T00:31:32;94075.88;;;15.37;87.83
21395;BME280;10858;42.714;23.180;2022-09-30T00:33:59;94073.31;;;15.60;86.51
21395;BME280;10858;42.714;23.180;2022-09-30T00:36:42;94073.19;;;15.37;86.85
21395;BME280;10858;42.714;23.180;2022-09-30T00:39:11;94075.00;;;15.53;85.33
21395;BME280;10858;42.714;23.180;2022-09-30T00:41:38;94073.06;;;15.22;86.96
21395;BME280;10858;42.714;23.180;2022-09-30T00:47:32;94067.97;;;15.52;85.38
21395;BME280;10858;42.714;23.180;2022-09-30T00:50:24;94064.63;;;15.42;85.31
21395;BME280;10858;42.714;23.180;2022-09-30T00:53:06;94069.69;;;15.37;84.72
21395;BME280;10858;42.714;23.180;2022-09-30T02:06:56;94112.06;;;14.11;87.50
21395;BME280;10858;42.714;23.180;2022-09-30T02:10:13;94104.22;;;14.09;88.19
21395;BME280;10858;42.714;23.180;2022-09-30T02:12:20;94107.22;;;14.06;87.45
21395;BME280;10858;42.714;23.180;2022-09-30T02:15:02;94113.34;;;13.91;88.03
21395;BME280;10858;42.714;23.180;2022-09-30T02:17:46;94103.31;;;13.85;88.98
21395;BME280;10858;42.714;23.180;2022-09-30T02:20:26;94103.66;;;13.90;88.45
21395;BME280;10858;42.714;23.180;2022-09-30T02:25:32;94103.69;;;13.98;88.08
21395;BME280;10858;42.714;23.180;2022-09-30T02:28:04;94101.66;;;13.92;88.71
21395;BME280;10858;42.714;23.180;2022-09-30T02:30:35;94105.69;;;13.96;89.37
21395;BME280;10858;42.714;23.180;2022-09-30T02:33:07;94107.19;;;13.98;89.02
21395;BME280;10858;42.714;23.180;2022-09-30T02:35:41;94103.69;;;13.98;88.35
21395;BME280;10858;42.714;23.180;2022-09-30T02:38:19;94105.00;;;13.94;87.50
21395;BME280;10858;42.714;23.180;2022-09-30T02:40:47;94098.38;;;14.14;86.15
21395;BME280;10858;42.714;23.180;2022-09-30T02:43:17;94108.06;;;14.07;85.94
21395;BME280;10858;42.714;23.180;2022-09-30T02:49:10;94101.34;;;13.87;86.76
21395;BME280;10858;42.714;23.180;2022-09-30T02:52:00;94104.97;;;13.86;87.03
21395;BME280;10858;42.714;23.180;2022-09-30T02:54:45;94103.97;;;13.79;87.50
21395;BME280;10858;42.714;23.180;2022-09-30T02:57:21;94109.56;;;13.68;88.72
21395;BME280;10858;42.714;23.180;2022-09-30T02:59:52;94110.91;;;13.72;89.48
21395;BME280;10858;42.714;23.180;2022-09-30T03:02:20;94118.63;;;13.75;88.60
21395;BME280;10858;42.714;23.180;2022-09-30T03:04:48;94106.38;;;14.06;87.95
21395;BME280;10858;42.714;23.180;2022-09-30T03:07:15;94125.00;;;13.90;88.79
21395;BME280;10858;42.714;23.180;2022-09-30T03:09:41;94118.75;;;14.15;88.28
21395;BME280;10858;42.714;23.180;2022-09-30T03:15:13;94119.81;;;14.30;86.86
21395;BME280;10858;42.714;23.180;2022-09-30T03:17:58;94123.06;;;14.08;86.72
21395;BME280;10858;42.714;23.180;2022-09-30T03:20:57;94115.75;;;14.18;85.85
21395;BME280;10858;42.714;23.180;2022-09-30T03:34:19;94125.41;;;14.19;87.01
21395;BME280;10858;42.714;23.180;2022-09-30T03:39:49;94130.25;;;14.23;87.70
21395;BME280;10858;42.714;23.180;2022-09-30T03:42:35;94129.06;;;14.10;89.11
21395;BME280;10858;42.714;23.180;2022-09-30T03:45:11;94145.94;;;14.18;89.20
21395;BME280;10858;42.714;23.180;2022-09-30T03:47:45;94151.88;;;14.54;87.56
21395;BME280;10858;42.714;23.180;2022-09-30T03:50:14;94149.19;;;14.54;87.53
21395;BME280;10858;42.714;23.180;2022-09-30T03:52:42;94144.34;;;14.58;87.29
21395;BME280;10858;42.714;23.180;2022-09-30T03:55:09;94153.22;;;14.66;87.20
21395;BME280;10858;42.714;23.180;2022-09-30T03:57:37;94153.41;;;14.65;87.27
21395;BME280;10858;42.714;23.180;2022-09-30T04:00:04;94159.06;;;14.70;87.13
21395;BME280;10858;42.714;23.180;2022-09-30T04:02:31;94165.06;;;14.64;87.50
21395;BME280;10858;42.714;23.180;2022-09-30T04:04:57;94159.56;;;14.73;87.77
21395;BME280;10858;42.714;23.180;2022-09-30T04:07:24;94153.06;;;14.84;87.22
21395;BME280;10858;42.714;23.180;2022-09-30T04:09:51;94152.75;;;14.95;86.90
21395;BME280;10858;42.714;23.180;2022-09-30T04:12:17;94156.41;;;14.78;86.90
21395;BME280;10858;42.714;23.180;2022-09-30T04:14:43;94136.72;;;14.95;86.44
21395;BME280;10858;42.714;23.180;2022-09-30T04:17:10;94144.56;;;14.72;87.55
21395;BME280;10858;42.714;23.180;2022-09-30T04:19:36;94140.19;;;14.95;87.23
21395;BME280;10858;42.714;23.180;2022-09-30T04:22:06;94139.88;;;14.90;87.70
21395;BME280;10858;42.714;23.180;2022-09-30T04:24:33;94147.91;;;14.82;88.74
21395;BME280;10858;42.714;23.180;2022-09-30T04:26:59;94160.22;;;14.83;88.77
21395;BME280;10858;42.714;23.180;2022-09-30T04:29:26;94157.41;;;14.93;88.13
21395;BME280;10858;42.714;23.180;2022-09-30T04:31:53;94152.56;;;14.96;88.06
21395;BME280;10858;42.714;23.180;2022-09-30T04:34:19;94165.25;;;15.02;87.72
21395;BME280;10858;42.714;23.180;2022-09-30T04:36:46;94173.59;;;15.23;87.08
21395;BME280;10858;42.714;23.180;2022-09-30T04:39:12;94165.06;;;15.28;86.60
21395;BME280;10858;42.714;23.180;2022-09-30T04:41:39;94170.91;;;15.15;87.08
21395;BME280;10858;42.714;23.180;2022-09-30T04:44:05;94170.75;;;15.33;87.11
21395;BME280;10858;42.714;23.180;2022-09-30T04:46:35;94169.59;;;15.44;86.68
21395;BME280;10858;42.714;23.180;2022-09-30T04:49:03;94169.59;;;15.44;87.79
21395;BME280;10858;42.714;23.180;2022-09-30T04:51:30;94191.31;;;15.57;87.22
21395;BME280;10858;42.714;23.180;2022-09-30T04:53:56;94196.00;;;15.47;88.17
21395;BME280;10858;42.714;23.180;2022-09-30T04:56:23;94199.63;;;15.62;87.18
21395;BME280;10858;42.714;23.180;2022-09-30T04:58:51;94200.13;;;15.57;87.33
21395;BME280;10858;42.714;23.180;2022-09-30T05:01:19;94191.78;;;15.60;87.52
21395;BME280;10858;42.714;23.180;2022-09-30T05:03:46;94196.00;;;15.55;88.09
21395;BME280;10858;42.714;23.180;2022-09-30T05:06:13;94183.91;;;15.75;87.70
21395;BME280;10858;42.714;23.180;2022-09-30T05:08:40;94187.91;;;15.79;87.55
21395;BME280;10858;42.714;23.180;2022-09-30T05:11:16;94192.88;;;15.90;88.33
21395;BME280;10858;42.714;23.180;2022-09-30T05:13:43;94198.59;;;15.87;87.95
21395;BME280;10858;42.714;23.180;2022-09-30T05:16:11;94200.66;;;16.15;87.43
21395;BME280;10858;42.714;23.180;2022-09-30T05:18:37;94196.53;;;16.05;86.59
21395;BME280;10858;42.714;23.180;2022-09-30T05:21:06;94200.94;;;15.82;87.04
21395;BME280;10858;42.714;23.180;2022-09-30T05:23:32;94205.13;;;15.84;87.84
21395;BME280;10858;42.714;23.180;2022-09-30T05:25:59;94219.19;;;15.70;88.48
21395;BME280;10858;42.714;23.180;2022-09-30T05:28:26;94200.56;;;16.01;87.90
21395;BME280;10858;42.714;23.180;2022-09-30T05:30:57;94200.72;;;15.91;87.84
21395;BME280;10858;42.714;23.180;2022-09-30T05:33:25;94210.19;;;16.18;87.53
21395;BME280;10858;42.714;23.180;2022-09-30T05:35:51;94217.19;;;16.27;86.73
21395;BME280;10858;42.714;23.180;2022-09-30T05:38:18;94221.84;;;16.33;86.83
21395;BME280;10858;42.714;23.180;2022-09-30T05:40:44;94223.28;;;16.44;86.84
21395;BME280;10858;42.714;23.180;2022-09-30T05:43:10;94233.00;;;16.53;86.99
21395;BME280;10858;42.714;23.180;2022-09-30T05:45:36;94232.63;;;16.56;86.05
21395;BME280;10858;42.714;23.180;2022-09-30T05:48:04;94239.22;;;16.76;85.54
21395;BME280;10858;42.714;23.180;2022-09-30T05:50:31;94241.63;;;16.93;85.34
21395;BME280;10858;42.714;23.180;2022-09-30T05:52:59;94230.00;;;17.09;84.94
21395;BME280;10858;42.714;23.180;2022-09-30T05:55:25;94237.09;;;17.47;84.00
21395;BME280;10858;42.714;23.180;2022-09-30T05:57:52;94231.06;;;17.23;83.42
21395;BME280;10858;42.714;23.180;2022-09-30T06:00:19;94229.75;;;17.19;83.45
21395;BME280;10858;42.714;23.180;2022-09-30T06:02:45;94232.50;;;17.11;83.32
21395;BME280;10858;42.714;23.180;2022-09-30T06:05:15;94224.22;;;17.43;84.32
21395;BME280;10858;42.714;23.180;2022-09-30T06:07:42;94242.84;;;17.96;81.82
21395;BME280;10858;42.714;23.180;2022-09-30T06:10:08;94252.16;;;17.71;80.17
21395;BME280;10858;42.714;23.180;2022-09-30T06:12:37;94255.84;;;17.70;82.49
21395;BME280;10858;42.714;23.180;2022-09-30T06:15:04;94239.41;;;17.28;81.69
21395;BME280;10858;42.714;23.180;2022-09-30T06:17:31;94239.22;;;17.07;84.70
21395;BME280;10858;42.714;23.180;2022-09-30T06:19:58;94250.47;;;17.55;82.99
21395;BME280;10858;42.714;23.180;2022-09-30T06:22:26;94246.81;;;17.71;81.32
21395;BME280;10858;42.714;23.180;2022-09-30T06:24:52;94251.59;;;17.61;82.72
21395;BME280;10858;42.714;23.180;2022-09-30T06:27:18;94255.25;;;17.82;82.71
21395;BME280;10858;42.714;23.180;2022-09-30T06:29:45;94277.69;;;17.67;83.55
21395;BME280;10858;42.714;23.180;2022-09-30T06:32:11;94278.09;;;17.78;82.82
21395;BME280;10858;42.714;23.180;2022-09-30T06:34:38;94286.72;;;17.66;82.78
21395;BME280;10858;42.714;23.180;2022-09-30T06:37:04;94284.69;;;17.91;82.83
21395;BME280;10858;42.714;23.180;2022-09-30T06:39:31;94284.56;;;17.69;82.22
21395;BME280;10858;42.714;23.180;2022-09-30T06:41:57;94277.53;;;17.38;84.11
21395;BME280;10858;42.714;23.180;2022-09-30T06:44:23;94294.53;;;17.30;85.22
21395;BME280;10858;42.714;23.180;2022-09-30T06:46:49;94306.81;;;17.70;82.64
21395;BME280;10858;42.714;23.180;2022-09-30T06:49:16;94306.28;;;17.74;81.46
21395;BME280;10858;42.714;23.180;2022-09-30T06:51:42;94320.63;;;17.67;82.38
21395;BME280;10858;42.714;23.180;2022-09-30T06:54:09;94317.03;;;17.74;81.92
21395;BME280;10858;42.714;23.180;2022-09-30T06:56:36;94320.84;;;17.80;81.31
21395;BME280;10858;42.714;23.180;2022-09-30T06:59:02;94321.34;;;17.83;79.58
21395;BME280;10858;42.714;23.180;2022-09-30T07:01:29;94324.75;;;17.92;80.42
21395;BME280;10858;42.714;23.180;2022-09-30T07:03:55;94318.66;;;17.98;79.98
21395;BME280;10858;42.714;23.180;2022-09-30T07:06:23;94320.78;;;18.25;79.77
21395;BME280;10858;42.714;23.180;2022-09-30T07:08:51;94329.34;;;18.43;79.22
21395;BME280;10858;42.714;23.180;2022-09-30T07:11:19;94333.59;;;18.52;78.25
21395;BME280;10858;42.714;23.180;2022-09-30T07:13:46;94335.19;;;18.61;77.31
21395;BME280;10858;42.714;23.180;2022-09-30T07:16:15;94341.00;;;18.50;78.20
21395;BME280;10858;42.714;23.180;2022-09-30T07:18:42;94341.22;;;18.63;76.94
21395;BME280;10858;42.714;23.180;2022-09-30T07:21:11;94343.09;;;18.40;79.76
21395;BME280;10858;42.714;23.180;2022-09-30T07:23:38;94342.41;;;18.46;78.64
21395;BME280;10858;42.714;23.180;2022-09-30T07:26:13;94344.91;;;18.62;78.20
21395;BME280;10858;42.714;23.180;2022-09-30T07:28:40;94348.44;;;18.92;76.49
21395;BME280;10858;42.714;23.180;2022-09-30T07:31:09;94347.56;;;19.71;74.76
21395;BME280;10858;42.714;23.180;2022-09-30T07:33:37;94347.09;;;20.52;71.89
21395;BME280;10858;42.714;23.180;2022-09-30T07:36:05;94347.78;;;20.95;71.60
21395;BME280;10858;42.714;23.180;2022-09-30T07:38:36;94346.00;;;21.02;69.24
21395;BME280;10858;42.714;23.180;2022-09-30T07:41:11;94347.22;;;21.47;69.98
21395;BME280;10858;42.714;23.180;2022-09-30T07:43:38;94351.72;;;21.27;67.28
21395;BME280;10858;42.714;23.180;2022-09-30T07:46:11;94356.28;;;21.26;69.24
21395;BME280;10858;42.714;23.180;2022-09-30T07:48:40;94351.19;;;21.51;68.30
21395;BME280;10858;42.714;23.180;2022-09-30T07:51:20;94355.06;;;21.89;68.49
21395;BME280;10858;42.714;23.180;2022-09-30T07:53:50;94352.00;;;22.25;66.53
21395;BME280;10858;42.714;23.180;2022-09-30T07:56:18;94354.34;;;22.80;63.35
21395;BME280;10858;42.714;23.180;2022-09-30T07:58:44;94350.59;;;24.02;62.66
21395;BME280;10858;42.714;23.180;2022-09-30T08:01:11;94355.75;;;25.15;57.74
21395;BME280;10858;42.714;23.180;2022-09-30T08:03:40;94357.19;;;25.79;56.44
21395;BME280;10858;42.714;23.180;2022-09-30T08:06:07;94362.13;;;25.82;56.70
21395;BME280;10858;42.714;23.180;2022-09-30T08:08:34;94353.38;;;25.80;54.42
21395;BME280;10858;42.714;23.180;2022-09-30T08:11:02;94373.28;;;25.19;56.74
21395;BME280;10858;42.714;23.180;2022-09-30T08:13:31;94367.59;;;25.46;57.46
21395;BME280;10858;42.714;23.180;2022-09-30T08:15:58;94361.00;;;25.35;58.04
21395;BME280;10858;42.714;23.180;2022-09-30T08:18:24;94365.66;;;26.00;57.05
21395;BME280;10858;42.714;23.180;2022-09-30T08:20:51;94367.72;;;26.35;53.85
21395;BME280;10858;42.714;23.180;2022-09-30T08:23:17;94371.63;;;26.39;52.72
21395;BME280;10858;42.714;23.180;2022-09-30T08:25:43;94372.81;;;26.31;54.67
21395;BME280;10858;42.714;23.180;2022-09-30T08:28:10;94381.19;;;26.59;55.56
21395;BME280;10858;42.714;23.180;2022-09-30T08:30:37;94379.88;;;27.38;51.83
21395;BME280;10858;42.714;23.180;2022-09-30T08:33:07;94382.72;;;27.54;48.68
21395;BME280;10858;42.714;23.180;2022-09-30T08:35:35;94381.75;;;27.03;50.86
21395;BME280;10858;42.714;23.180;2022-09-30T08:38:02;94379.50;;;27.23;50.37
21395;BME280;10858;42.714;23.180;2022-09-30T08:40:32;94373.66;;;26.96;51.67
21395;BME280;10858;42.714;23.180;2022-09-30T08:43:30;94382.22;;;26.17;53.35
21395;BME280;10858;42.714;23.180;2022-09-30T08:49:05;94381.47;;;25.56;57.90
21395;BME280;10858;42.714;23.180;2022-09-30T08:51:43;94390.94;;;26.78;53.52
21395;BME280;10858;42.714;23.180;2022-09-30T08:54:17;94398.28;;;26.48;53.42
21395;BME280;10858;42.714;23.180;2022-09-30T08:56:45;94392.94;;;25.94;53.03
21395;BME280;10858;42.714;23.180;2022-09-30T08:59:48;94401.88;;;25.83;56.05
21395;BME280;10858;42.714;23.180;2022-09-30T09:04:41;94388.38;;;27.07;51.88
21395;BME280;10858;42.714;23.180;2022-09-30T09:10:17;94413.41;;;28.52;42.82
21395;BME280;10858;42.714;23.180;2022-09-30T09:16:06;94412.50;;;29.20;40.87
21395;BME280;10858;42.714;23.180;2022-09-30T09:24:02;94410.41;;;28.37;40.28
21395;BME280;10858;42.714;23.180;2022-09-30T09:26:35;94406.69;;;28.43;40.27
21395;BME280;10858;42.714;23.180;2022-09-30T09:32:03;94402.50;;;28.24;39.15
21395;BME280;10858;42.714;23.180;2022-09-30T09:34:35;94402.81;;;28.68;41.10
21395;BME280;10858;42.714;23.180;2022-09-30T09:40:25;94403.19;;;28.88;39.25
21395;BME280;10858;42.714;23.180;2022-09-30T09:46:42;94400.47;;;29.37;40.50
21395;BME280;10858;42.714;23.180;2022-09-30T09:48:49;94401.53;;;29.53;37.91
21395;BME280;10858;42.714;23.180;2022-09-30T09:51:30;94392.91;;;29.61;37.47
21395;BME280;10858;42.714;23.180;2022-09-30T09:54:00;94391.44;;;29.54;35.77
21395;BME280;10858;42.714;23.180;2022-09-30T09:56:28;94389.75;;;29.69;37.95
21395;BME280;10858;42.714;23.180;2022-09-30T09:59:15;94404.28;;;30.30;37.88
21395;BME280;10858;42.714;23.180;2022-09-30T10:01:52;94399.03;;;30.50;35.07
21395;BME280;10858;42.714;23.180;2022-09-30T10:04:19;94385.91;;;29.70;34.21
21395;BME280;10858;42.714;23.180;2022-09-30T10:06:54;94415.41;;;29.30;38.84
21395;BME280;10858;42.714;23.180;2022-09-30T10:09:34;94404.69;;;29.28;38.08
21395;BME280;10858;42.714;23.180;2022-09-30T10:14:40;94413.50;;;29.14;40.06
21395;BME280;10858;42.714;23.180;2022-09-30T10:19:53;94399.72;;;30.62;36.49
21395;BME280;10858;42.714;23.180;2022-09-30T10:22:30;94391.34;;;30.73;34.93
21395;BME280;10858;42.714;23.180;2022-09-30T10:25:16;94390.44;;;31.21;32.86
21395;BME280;10858;42.714;23.180;2022-09-30T10:28:01;94379.28;;;30.96;35.29
21395;BME280;10858;42.714;23.180;2022-09-30T10:30:38;94381.22;;;31.00;32.23
21395;BME280;10858;42.714;23.180;2022-09-30T10:35:54;94384.66;;;30.16;33.27
21395;BME280;10858;42.714;23.180;2022-09-30T10:38:23;94384.75;;;30.96;35.04
21395;BME280;10858;42.714;23.180;2022-09-30T10:40:51;94383.84;;;31.91;33.38
21395;BME280;10858;42.714;23.180;2022-09-30T10:43:56;94377.03;;;32.03;31.63
21395;BME280;10858;42.714;23.180;2022-09-30T10:46:31;94371.97;;;31.85;32.86
21395;BME280;10858;42.714;23.180;2022-09-30T10:48:58;94379.50;;;32.00;31.64
21395;BME280;10858;42.714;23.180;2022-09-30T10:51:31;94384.53;;;32.18;31.61
21395;BME280;10858;42.714;23.180;2022-09-30T10:53:59;94391.69;;;31.77;34.09
21395;BME280;10858;42.714;23.180;2022-09-30T10:56:52;94389.69;;;32.04;32.83
21395;BME280;10858;42.714;23.180;2022-09-30T10:59:39;94390.28;;;31.69;31.55
21395;BME280;10858;42.714;23.180;2022-09-30T11:05:23;94396.44;;;30.86;33.90
21395;BME280;10858;42.714;23.180;2022-09-30T11:08:15;94394.84;;;31.22;33.00
21395;BME280;10858;42.714;23.180;2022-09-30T11:11:07;94393.91;;;31.38;31.09
21395;BME280;10858;42.714;23.180;2022-09-30T11:13:49;94394.09;;;31.63;30.10
21395;BME280;10858;42.714;23.180;2022-09-30T11:16:51;94383.53;;;31.87;29.89
21395;BME280;10858;42.714;23.180;2022-09-30T11:19:55;94386.22;;;32.24;28.06
21395;BME280;10858;42.714;23.180;2022-09-30T11:25:04;94387.09;;;31.82;31.31
21395;BME280;10858;42.714;23.180;2022-09-30T11:27:36;94398.03;;;32.29;32.61
21395;BME280;10858;42.714;23.180;2022-09-30T11:38:57;94394.09;;;32.72;30.00
21395;BME280;10858;42.714;23.180;2022-09-30T11:41:42;94393.34;;;33.92;27.98
21395;BME280;10858;42.714;23.180;2022-09-30T11:44:32;94398.03;;;33.87;29.47
21395;BME280;10858;42.714;23.180;2022-09-30T11:52:25;94400.19;;;34.10;26.84
21395;BME280;10858;42.714;23.180;2022-09-30T11:58:05;94394.78;;;31.49;30.24
21395;BME280;10858;42.714;23.180;2022-09-30T12:00:41;94394.66;;;30.75;31.96
21395;BME280;10858;42.714;23.180;2022-09-30T12:03:19;94391.22;;;30.37;32.45
21395;BME280;10858;42.714;23.180;2022-09-30T12:08:51;94393.03;;;29.33;34.48
21395;BME280;10858;42.714;23.180;2022-09-30T12:14:04;94402.25;;;28.82;34.96
21395;BME280;10858;42.714;23.180;2022-09-30T12:16:32;94400.69;;;28.70;34.86
21395;BME280;10858;42.714;23.180;2022-09-30T12:19:15;94401.91;;;29.40;35.36
21395;BME280;10858;42.714;23.180;2022-09-30T12:22:03;94393.75;;;30.21;33.08
21395;BME280;10858;42.714;23.180;2022-09-30T12:24:37;94400.94;;;30.97;32.24
21395;BME280;10858;42.714;23.180;2022-09-30T12:27:11;94405.34;;;31.30;30.87
21395;BME280;10858;42.714;23.180;2022-09-30T12:29:45;94400.50;;;32.26;28.95
21395;BME280;10858;42.714;23.180;2022-09-30T12:49:31;94398.78;;;32.82;28.03
21395;BME280;10858;42.714;23.180;2022-09-30T12:52:04;94403.16;;;32.06;29.16
21395;BME280;10858;42.714;23.180;2022-09-30T12:54:40;94405.63;;;32.79;28.59
21395;BME280;10858;42.714;23.180;2022-09-30T12:57:08;94397.78;;;33.28;27.50
21395;BME280;10858;42.714;23.180;2022-09-30T12:59:44;94408.94;;;32.81;28.32
21395;BME280;10858;42.714;23.180;2022-09-30T13:02:28;94402.91;;;32.74;27.88
21395;BME280;10858;42.714;23.180;2022-09-30T13:13:25;94404.91;;;33.84;27.27
21395;BME280;10858;42.714;23.180;2022-09-30T13:15:56;94398.75;;;34.27;28.27
21395;BME280;10858;42.714;23.180;2022-09-30T13:34:13;94401.81;;;32.85;28.35
21395;BME280;10858;42.714;23.180;2022-09-30T13:45:01;94416.41;;;32.91;25.86
21395;BME280;10858;42.714;23.180;2022-09-30T13:47:34;94411.19;;;32.22;26.90
21395;BME280;10858;42.714;23.180;2022-09-30T13:52:55;94407.75;;;30.68;30.03
21395;BME280;10858;42.714;23.180;2022-09-30T13:55:35;94409.41;;;30.96;30.30
21395;BME280;10858;42.714;23.180;2022-09-30T13:58:03;94410.38;;;30.85;30.68
21395;BME280;10858;42.714;23.180;2022-09-30T14:00:57;94415.88;;;30.85;29.30
21395;BME280;10858;42.714;23.180;2022-09-30T14:14:51;94424.19;;;31.53;30.93
21395;BME280;10858;42.714;23.180;2022-09-30T14:17:33;94427.50;;;31.29;30.75
21395;BME280;10858;42.714;23.180;2022-09-30T14:20:23;94428.03;;;31.52;31.85
21395;BME280;10858;42.714;23.180;2022-09-30T14:22:52;94433.47;;;30.67;31.56
21395;BME280;10858;42.714;23.180;2022-09-30T14:25:19;94434.59;;;30.71;30.23
21395;BME280;10858;42.714;23.180;2022-09-30T14:28:02;94429.78;;;30.57;33.86
21395;BME280;10858;42.714;23.180;2022-09-30T14:30:35;94439.47;;;30.43;33.10
21395;BME280;10858;42.714;23.180;2022-09-30T14:33:17;94442.59;;;30.51;32.43
21395;BME280;10858;42.714;23.180;2022-09-30T14:35:52;94434.44;;;30.56;31.86
21395;BME280;10858;42.714;23.180;2022-09-30T14:38:22;94443.31;;;30.42;32.91
21395;BME280;10858;42.714;23.180;2022-09-30T14:41:02;94439.44;;;30.21;34.55
21395;BME280;10858;42.714;23.180;2022-09-30T14:43:35;94444.91;;;30.21;36.70
21395;BME280;10858;42.714;23.180;2022-09-30T14:48:44;94448.78;;;29.32;36.01
21395;BME280;10858;42.714;23.180;2022-09-30T14:51:15;94452.38;;;28.76;38.17
21395;BME280;10858;42.714;23.180;2022-09-30T14:54:02;94457.94;;;27.78;41.08
21395;BME280;10858;42.714;23.180;2022-09-30T14:56:35;94444.63;;;27.24;41.09
21395;BME280;10858;42.714;23.180;2022-09-30T14:59:18;94459.19;;;27.07;43.67
21395;BME280;10858;42.714;23.180;2022-09-30T15:01:50;94457.63;;;26.40;43.17
21395;BME280;10858;42.714;23.180;2022-09-30T15:04:25;94457.28;;;26.18;43.52
21395;BME280;10858;42.714;23.180;2022-09-30T15:06:53;94456.66;;;25.98;44.96
21395;BME280;10858;42.714;23.180;2022-09-30T15:09:37;94459.69;;;25.72;47.12
21395;BME280;10858;42.714;23.180;2022-09-30T15:12:18;94456.13;;;25.53;45.81
21395;BME280;10858;42.714;23.180;2022-09-30T15:14:50;94459.03;;;25.09;46.94
21395;BME280;10858;42.714;23.180;2022-09-30T15:17:23;94456.72;;;24.81;46.77
21395;BME280;10858;42.714;23.180;2022-09-30T15:19:50;94461.59;;;24.35;50.25
21395;BME280;10858;42.714;23.180;2022-09-30T15:22:17;94464.44;;;23.96;49.96
21395;BME280;10858;42.714;23.180;2022-09-30T15:24:46;94469.72;;;23.71;49.60
21395;BME280;10858;42.714;23.180;2022-09-30T15:27:28;94477.75;;;23.33;53.65
21395;BME280;10858;42.714;23.180;2022-09-30T15:30:02;94478.78;;;22.80;54.66
21395;BME280;10858;42.714;23.180;2022-09-30T15:32:33;94489.72;;;22.46;55.75
21395;BME280;10858;42.714;23.180;2022-09-30T15:35:11;94494.41;;;22.18;56.21
21395;BME280;10858;42.714;23.180;2022-09-30T15:37:40;94495.88;;;22.20;54.54
21395;BME280;10858;42.714;23.180;2022-09-30T15:40:15;94496.22;;;21.97;56.02
21395;BME280;10858;42.714;23.180;2022-09-30T15:43:05;94504.72;;;21.60;57.78
21395;BME280;10858;42.714;23.180;2022-09-30T15:45:40;94502.44;;;21.30;59.78
21395;BME280;10858;42.714;23.180;2022-09-30T15:50:56;94501.59;;;20.80;60.63
21395;BME280;10858;42.714;23.180;2022-09-30T15:53:24;94507.31;;;20.71;60.58
21395;BME280;10858;42.714;23.180;2022-09-30T15:55:52;94504.75;;;20.63;60.50
21395;BME280;10858;42.714;23.180;2022-09-30T15:58:36;94504.25;;;20.53;60.21
21395;BME280;10858;42.714;23.180;2022-09-30T16:01:18;94512.44;;;20.45;60.09
21395;BME280;10858;42.714;23.180;2022-09-30T16:03:56;94526.03;;;20.37;59.97
21395;BME280;10858;42.714;23.180;2022-09-30T16:06:27;94524.50;;;20.13;61.76
21395;BME280;10858;42.714;23.180;2022-09-30T16:08:59;94526.66;;;20.03;61.04
21395;BME280;10858;42.714;23.180;2022-09-30T16:11:41;94530.66;;;19.92;60.91
21395;BME280;10858;42.714;23.180;2022-09-30T16:14:17;94537.00;;;19.70;61.23
21395;BME280;10858;42.714;23.180;2022-09-30T16:16:49;94546.38;;;19.45;62.21
21395;BME280;10858;42.714;23.180;2022-09-30T16:19:18;94544.38;;;19.24;63.66
21395;BME280;10858;42.714;23.180;2022-09-30T16:21:47;94541.69;;;19.10;63.30
21395;BME280;10858;42.714;23.180;2022-09-30T16:26:58;94530.72;;;18.97;63.57
21395;BME280;10858;42.714;23.180;2022-09-30T16:29:26;94538.03;;;18.65;65.31
21395;BME280;10858;42.714;23.180;2022-09-30T16:31:56;94549.81;;;18.34;66.30
21395;BME280;10858;42.714;23.180;2022-09-30T16:34:27;94551.88;;;18.24;67.70
21395;BME280;10858;42.714;23.180;2022-09-30T16:37:02;94551.41;;;18.20;67.00
21395;BME280;10858;42.714;23.180;2022-09-30T16:39:30;94555.78;;;18.21;67.97
21395;BME280;10858;42.714;23.180;2022-09-30T16:41:56;94553.28;;;18.12;68.62
21395;BME280;10858;42.714;23.180;2022-09-30T16:44:23;94565.91;;;18.11;68.27
21395;BME280;10858;42.714;23.180;2022-09-30T16:46:49;94557.09;;;17.95;70.08
21395;BME280;10858;42.714;23.180;2022-09-30T16:49:18;94570.84;;;18.00;69.13
21395;BME280;10858;42.714;23.180;2022-09-30T16:51:44;94574.03;;;17.95;69.15
21395;BME280;10858;42.714;23.180;2022-09-30T16:54:11;94569.78;;;18.09;66.59
21395;BME280;10858;42.714;23.180;2022-09-30T16:56:38;94569.16;;;18.29;64.75
21395;BME280;10858;42.714;23.180;2022-09-30T16:59:12;94578.81;;;18.46;64.49
21395;BME280;10858;42.714;23.180;2022-09-30T17:01:39;94573.44;;;18.69;62.63
21395;BME280;10858;42.714;23.180;2022-09-30T17:04:06;94580.06;;;19.04;61.08
21395;BME280;10858;42.714;23.180;2022-09-30T17:06:34;94572.13;;;19.25;60.74
21395;BME280;10858;42.714;23.180;2022-09-30T17:09:02;94576.50;;;19.26;61.27